Time;durP1;ratioP1;P1;durP2;ratioP2;P2;SDS_P1;SDS_P2;PMS_P1;PMS_P2;Temp;Humidity;BMP_temperature;BMP_pressure;BME280_temperature;BME280_humidity;BME280_pressure;Samples;Min_cycle;Max_cycle;Signal;HPM_P1;HPM_P2
2021/04/05 00:04:20;;;;;;;25.37;10.00;;;;;;;0.33;66.21;98312.11;238750;1199;23105;-70
2021/04/05 00:09:23;;;;;;;20.80;8.57;;;;;;;0.36;66.79;98295.04;238640;1197;23209;-71
2021/04/05 00:14:26;;;;;;;17.90;8.35;;;;;;;0.37;67.26;98294.80;238559;1197;23223;-70
2021/04/05 00:19:29;;;;;;;14.90;7.93;;;;;;;0.40;67.01;98291.70;238348;1200;23206;-70
2021/04/05 00:24:32;;;;;;;14.45;7.80;;;;;;;0.40;67.08;98283.79;238667;1200;23109;-69
2021/04/05 00:29:36;;;;;;;17.10;9.17;;;;;;;0.44;66.75;98281.50;238605;1200;23182;-70
2021/04/05 00:34:38;;;;;;;15.60;7.63;;;;;;;0.49;67.28;98263.13;238398;1197;23434;-70
2021/04/05 00:39:42;;;;;;;12.70;7.00;;;;;;;0.54;66.90;98255.33;238621;1196;23109;-70
2021/04/05 00:44:46;;;;;;;16.40;7.10;;;;;;;0.59;66.36;98254.61;238609;1196;23125;-70
2021/04/05 00:49:48;;;;;;;13.33;6.43;;;;;;;0.64;66.51;98239.72;238571;1196;23122;-70
2021/04/05 00:54:52;;;;;;;11.00;6.13;;;;;;;0.67;66.15;98217.33;238673;1199;23263;-70
2021/04/05 00:59:56;;;;;;;9.60;5.97;;;;;;;0.70;66.48;98216.88;238518;1200;23186;-71
2021/04/05 01:04:59;;;;;;;10.30;5.80;;;;;;;0.74;65.92;98202.19;238657;1201;23113;-70
2021/04/05 01:10:05;;;;;;;11.43;6.13;;;;;;;0.76;66.31;98209.85;238748;1202;23121;-70
2021/04/05 01:15:13;;;;;;;10.83;5.25;;;;;;;0.80;66.05;98188.03;238533;1196;26162;-69
2021/04/05 01:20:21;;;;;;;9.97;5.07;;;;;;;0.82;65.50;98178.03;238570;1199;23113;-70
2021/04/05 01:25:26;;;;;;;9.90;5.50;;;;;;;0.85;66.31;98171.48;238590;1202;24296;-70
2021/04/05 01:30:40;;;;;;;10.77;5.80;;;;;;;0.85;65.44;98160.94;238577;1196;23102;-70
2021/04/05 01:35:55;;;;;;;9.83;5.37;;;;;;;0.86;65.80;98149.36;238853;1198;23119;-70
2021/04/05 01:41:31;;;;;;;12.90;6.40;;;;;;;0.88;66.03;98149.12;238634;1202;25990;-69
2021/04/05 01:46:35;;;;;;;9.37;6.00;;;;;;;0.89;65.26;98132.27;238905;1196;23276;-70
2021/04/05 01:51:38;;;;;;;9.00;6.30;;;;;;;0.87;65.73;98121.14;238536;1200;23109;-70
2021/04/05 01:56:42;;;;;;;9.45;6.45;;;;;;;0.82;65.70;98112.11;238821;1201;23102;-71
2021/04/05 02:01:44;;;;;;;11.60;7.33;;;;;;;0.80;65.56;98094.96;238747;1200;23180;-70
2021/04/05 02:06:50;;;;;;;10.90;6.97;;;;;;;0.80;65.92;98108.93;238657;1196;23106;-69
2021/04/05 02:11:53;;;;;;;12.35;5.85;;;;;;;0.76;65.78;98094.63;238684;1202;23164;-71
2021/04/05 02:16:57;;;;;;;10.57;5.93;;;;;;;0.75;65.80;98094.88;238891;1197;23109;-70
2021/04/05 02:22:00;;;;;;;11.67;6.40;;;;;;;0.71;65.95;98081.36;238697;1196;23252;-70
2021/04/05 02:27:03;;;;;;;10.60;5.93;;;;;;;0.67;65.96;98073.16;238613;1196;23135;-71
2021/04/05 02:32:08;;;;;;;11.95;5.95;;;;;;;0.62;65.98;98067.80;238631;1202;23098;-70
2021/04/05 02:37:13;;;;;;;11.40;6.20;;;;;;;0.60;65.55;98053.25;238371;1200;23102;-71
2021/04/05 02:42:20;;;;;;;9.50;5.60;;;;;;;0.62;65.59;98045.92;238561;1200;23121;-69
2021/04/05 02:47:24;;;;;;;8.77;5.63;;;;;;;0.62;65.66;98033.52;238718;1200;23128;-72
2021/04/05 02:52:26;;;;;;;10.30;5.85;;;;;;;0.63;66.21;98008.77;238528;1200;23279;-70
2021/04/05 02:57:30;;;;;;;9.60;5.67;;;;;;;0.66;65.79;97996.95;238566;1199;23096;-71
2021/04/05 03:02:33;;;;;;;7.87;4.87;;;;;;;0.67;65.49;97998.52;238454;1200;23112;-72
2021/04/05 03:07:37;;;;;;;6.60;4.70;;;;;;;0.67;65.42;97991.43;238782;1198;24741;-69
2021/04/05 03:12:42;;;;;;;8.07;5.33;;;;;;;0.71;65.43;97973.27;238654;1202;23095;-71
2021/04/05 03:17:45;;;;;;;8.20;5.00;;;;;;;0.76;65.15;97970.71;238698;1199;23215;-71
2021/04/05 03:22:48;;;;;;;8.05;4.55;;;;;;;0.79;64.87;97958.88;238960;1200;23105;-70
2021/04/05 03:27:51;;;;;;;8.03;4.23;;;;;;;0.79;64.78;97953.61;238792;1201;23112;-70
2021/04/05 03:33:01;;;;;;;8.57;4.33;;;;;;;0.78;64.67;97934.34;238523;1202;23107;-73
2021/04/05 03:38:04;;;;;;;8.43;4.35;;;;;;;0.83;65.04;97923.86;239368;1196;23134;-71
2021/04/05 03:43:15;;;;;;;6.05;3.70;;;;;;;0.87;64.47;97912.82;238735;1200;23106;-70
2021/04/05 03:48:35;;;;;;;7.27;4.30;;;;;;;0.92;64.33;97894.42;238753;1196;23106;-69
2021/04/05 03:54:10;;;;;;;8.13;4.03;;;;;;;0.92;64.34;97883.88;238828;1200;23118;-70
2021/04/05 03:59:29;;;;;;;6.70;3.37;;;;;;;0.93;63.91;97870.44;238756;1197;23130;-70
2021/04/05 04:04:39;;;;;;;6.70;3.80;;;;;;;0.95;64.02;97871.01;238593;1196;23707;-70
2021/04/05 04:09:45;;;;;;;7.65;4.25;;;;;;;0.94;64.23;97850.16;238777;1197;23105;-70
2021/04/05 04:14:48;;;;;;;7.90;4.10;;;;;;;0.96;63.76;97833.02;238778;1196;23244;-70
2021/04/05 04:19:52;;;;;;;7.60;3.77;;;;;;;0.99;64.11;97810.63;238847;1196;26071;-70
2021/04/05 04:24:55;;;;;;;6.30;3.63;;;;;;;1.02;63.40;97815.41;238594;1196;23161;-70
2021/04/05 04:29:58;;;;;;;5.60;3.20;;;;;;;1.04;63.62;97805.42;238754;1197;23127;-70
2021/04/05 04:35:01;;;;;;;6.00;3.45;;;;;;;1.05;63.30;97783.27;238672;1201;23105;-70
2021/04/05 04:40:04;;;;;;;6.30;3.40;;;;;;;1.07;63.22;97786.45;238873;1200;23118;-70
2021/04/05 04:45:07;;;;;;;5.30;3.67;;;;;;;1.13;63.18;97784.64;238424;1196;23102;-70
2021/04/05 04:50:14;;;;;;;6.67;3.30;;;;;;;1.19;62.95;97767.83;238722;1197;23554;-70
2021/04/05 04:55:17;;;;;;;7.53;3.60;;;;;;;1.30;63.15;97763.41;238559;1203;27210;-70
2021/04/05 05:00:20;;;;;;;6.20;3.40;;;;;;;1.36;62.61;97731.53;238559;1201;27310;-70
2021/04/05 05:05:25;;;;;;;8.07;4.10;;;;;;;1.44;62.79;97751.39;238460;1199;23101;-70
2021/04/05 05:10:28;;;;;;;7.60;3.63;;;;;;;1.54;62.55;97727.69;238496;1202;23092;-70
2021/04/05 05:15:35;;;;;;;7.07;3.97;;;;;;;1.68;62.02;97721.97;238615;1197;23186;-70
2021/04/05 05:20:38;;;;;;;6.80;4.00;;;;;;;1.85;61.21;97703.30;238679;1200;23105;-70
2021/04/05 05:25:42;;;;;;;5.40;3.30;;;;;;;2.04;60.45;97685.13;238559;1196;23182;-70
2021/04/05 05:30:47;;;;;;;4.60;2.80;;;;;;;2.27;59.26;97678.61;238562;1200;23612;-69
2021/04/05 05:35:52;;;;;;;7.05;2.95;;;;;;;2.48;59.87;97674.16;238460;1200;23105;-71
2021/04/05 05:41:05;;;;;;;5.20;2.93;;;;;;;2.69;58.69;97674.19;238493;1197;23095;-70
2021/04/05 05:46:23;;;;;;;5.00;2.93;;;;;;;2.91;56.93;97677.36;238797;1200;23128;-71
2021/04/05 05:51:47;;;;;;;6.05;2.95;;;;;;;3.11;56.96;97673.11;238788;1196;23452;-70
2021/04/05 05:57:28;;;;;;;4.00;2.70;;;;;;;3.31;56.30;97660.91;238493;1200;27818;-70
2021/04/05 06:02:53;;;;;;;5.37;3.10;;;;;;;3.50;56.72;97656.63;238388;1200;23132;-70
2021/04/05 06:08:19;;;;;;;4.60;2.80;;;;;;;3.73;55.42;97651.78;238624;1200;23318;-71
2021/04/05 06:13:44;;;;;;;4.37;2.80;;;;;;;3.94;55.22;97647.19;238773;1198;23135;-70
2021/04/05 06:18:58;;;;;;;4.37;2.60;;;;;;;4.13;54.19;97628.81;239341;1202;25962;-69
2021/04/05 06:24:12;;;;;;;5.07;3.00;;;;;;;4.30;54.19;97614.41;238632;1200;23096;-70
2021/04/05 06:29:51;;;;;;;5.90;3.30;;;;;;;4.49;53.08;97612.67;238693;1197;23119;-71
2021/04/05 06:34:57;;;;;;;5.17;3.10;;;;;;;4.68;53.56;97601.38;238720;1201;23105;-70
2021/04/05 06:40:07;;;;;;;5.60;3.20;;;;;;;4.86;52.76;97590.07;238555;1202;23108;-69
2021/04/05 06:45:27;;;;;;;4.40;3.07;;;;;;;5.03;52.73;97594.95;239058;1199;26087;-70
2021/04/05 06:50:57;;;;;;;4.20;3.30;;;;;;;5.15;52.60;97589.27;238821;1198;23115;-69
2021/04/05 06:56:10;;;;;;;6.23;3.67;;;;;;;5.30;51.94;97581.14;238776;1200;23303;-70
2021/04/05 07:01:42;;;;;;;5.95;3.40;;;;;;;5.45;52.19;97577.50;238761;1202;23077;-71
2021/04/05 07:07:01;;;;;;;6.67;3.70;;;;;;;5.66;52.21;97582.57;238592;1201;23109;-70
2021/04/05 07:12:35;;;;;;;5.20;3.40;;;;;;;5.92;51.81;97583.03;238765;1200;23102;-69
2021/04/05 07:18:06;;;;;;;5.10;3.23;;;;;;;6.14;50.27;97573.72;238384;1202;23276;-70
2021/04/05 07:23:21;;;;;;;6.70;3.60;;;;;;;6.35;51.24;97552.91;238618;1202;23108;-71
2021/04/05 07:28:48;;;;;;;6.40;3.85;;;;;;;6.58;49.74;97540.58;238708;1200;23225;-70
2021/04/05 07:33:57;;;;;;;6.27;3.27;;;;;;;6.80;49.00;97547.93;239024;1202;23138;-69
2021/04/05 07:39:26;;;;;;;5.60;3.70;;;;;;;6.94;49.70;97534.64;238497;1199;23099;-70
2021/04/05 07:44:57;;;;;;;6.13;3.93;;;;;;;7.17;49.74;97518.77;238892;1196;23105;-69
2021/04/05 07:50:12;;;;;;;7.63;4.20;;;;;;;7.40;48.45;97510.84;238684;1199;23112;-69
2021/04/05 07:55:15;;;;;;;7.17;3.93;;;;;;;7.59;48.89;97492.85;239386;1200;23112;-70
2021/04/05 08:00:27;;;;;;;8.43;4.03;;;;;;;7.79;48.50;97464.97;238706;1200;23129;-69
2021/04/05 08:06:16;;;;;;;12.85;3.85;;;;;;;8.00;47.46;97488.48;238632;1197;23163;-69
2021/04/05 08:11:42;;;;;;;7.43;4.10;;;;;;;8.22;48.02;97501.81;238679;1199;23122;-70
2021/04/05 08:17:25;;;;;;;7.63;4.07;;;;;;;8.36;48.01;97459.05;238764;1200;23198;-68
2021/04/05 08:22:57;;;;;;;5.80;3.60;;;;;;;8.58;46.98;97452.14;238734;1200;23244;-69
2021/04/05 08:28:27;;;;;;;6.65;3.85;;;;;;;8.66;46.69;97432.70;238690;1202;23105;-69
2021/04/05 08:33:49;;;;;;;6.87;3.40;;;;;;;8.81;45.87;97412.79;238689;1197;23159;-69
2021/04/05 08:39:01;;;;;;;8.10;3.53;;;;;;;8.98;45.27;97406.73;238540;1196;26239;-68
2021/04/05 08:44:23;;;;;;;5.47;3.20;;;;;;;9.18;44.98;97408.02;238791;1202;23096;-70
2021/04/05 08:49:28;;;;;;;7.55;4.40;;;;;;;9.39;45.33;97386.81;238579;1200;23096;-69
2021/04/05 08:54:36;;;;;;;6.10;3.60;;;;;;;9.61;44.35;97390.41;238615;1196;23106;-69
2021/04/05 09:00:06;;;;;;;7.10;3.70;;;;;;;9.63;44.56;97400.81;238763;1198;23112;-69
2021/04/05 09:05:15;;;;;;;6.95;4.45;;;;;;;9.73;44.72;97385.22;238637;1199;23112;-70
2021/04/05 09:10:28;;;;;;;7.00;3.90;;;;;;;10.10;44.07;97350.85;238851;1202;23090;-69
2021/04/05 09:15:46;;;;;;;8.45;4.70;;;;;;;10.21;43.63;97351.30;238866;1202;23109;-70
2021/04/05 09:21:15;;;;;;;8.27;3.93;;;;;;;10.21;44.39;97345.14;238765;1198;23112;-69
2021/04/05 09:26:35;;;;;;;11.70;4.57;;;;;;;10.24;43.43;97331.91;238844;1202;23137;-70
2021/04/05 09:32:09;;;;;;;7.65;3.60;;;;;;;10.27;43.71;97341.20;238690;1200;27304;-70
2021/04/05 09:37:33;;;;;;;7.30;4.20;;;;;;;10.36;43.26;97306.39;238714;1196;23109;-71
2021/04/05 09:43:08;;;;;;;6.83;3.87;;;;;;;10.49;43.04;97307.27;238655;1201;23244;-69
2021/04/05 09:48:46;;;;;;;8.10;4.20;;;;;;;10.27;43.13;97298.38;238791;1197;23163;-69
2021/04/05 09:54:12;;;;;;;7.53;4.00;;;;;;;10.20;44.58;97290.04;239309;1199;23114;-68
2021/04/05 09:59:19;;;;;;;8.90;4.10;;;;;;;10.33;44.16;97266.86;238824;1200;23095;-72
2021/04/05 10:04:24;;;;;;;6.23;3.67;;;;;;;10.31;43.23;97247.64;238939;1199;23133;-70
2021/04/05 10:09:30;;;;;;;8.17;4.53;;;;;;;10.35;43.62;97256.63;238465;1200;23391;-69
2021/04/05 10:14:40;;;;;;;7.57;4.57;;;;;;;10.35;44.33;97264.66;238772;1196;24769;-69
2021/04/05 10:19:44;;;;;;;6.28;3.98;;;;;;;10.68;44.52;97246.03;238475;1202;23117;-70
2021/04/05 10:24:49;;;;;;;7.45;4.10;;;;;;;11.15;44.29;97220.12;238742;1202;23102;-69
2021/04/05 10:29:55;;;;;;;6.07;4.20;;;;;;;11.56;42.92;97215.77;238769;1200;23115;-70
2021/04/05 10:35:00;;;;;;;5.30;4.10;;;;;;;12.11;41.38;97205.66;238532;1200;23272;-70
2021/04/05 10:40:03;;;;;;;6.00;3.65;;;;;;;12.54;39.76;97182.00;238570;1200;27649;-70
2021/04/05 10:45:10;;;;;;;7.53;4.00;;;;;;;12.67;40.71;97196.94;238644;1202;23263;-70
2021/04/05 10:50:13;;;;;;;4.23;3.30;;;;;;;12.60;39.56;97191.38;238789;1200;23112;-70
2021/04/05 10:55:21;;;;;;;5.50;3.80;;;;;;;12.46;38.93;97189.82;238641;1196;23207;-68
2021/04/05 11:00:36;;;;;;;5.70;3.80;;;;;;;12.44;39.14;97178.66;238433;1202;23115;-68
2021/04/05 11:05:42;;;;;;;7.05;4.15;;;;;;;12.35;38.37;97186.05;238756;1200;25971;-72
2021/04/05 11:10:47;;;;;;;4.15;3.00;;;;;;;12.47;38.77;97169.91;238867;1196;26364;-69
2021/04/05 11:15:51;;;;;;;6.25;3.60;;;;;;;12.65;38.90;97134.73;238637;1196;23163;-69
2021/04/05 11:20:58;;;;;;;5.65;4.00;;;;;;;12.75;38.81;97120.80;238799;1197;23135;-69
2021/04/05 11:26:04;;;;;;;9.43;3.93;;;;;;;12.91;38.70;97114.67;238728;1200;23109;-69
2021/04/05 11:31:17;;;;;;;7.10;3.60;;;;;;;12.89;37.99;97115.02;238837;1202;23071;-69
2021/04/05 11:36:21;;;;;;;5.30;3.67;;;;;;;12.80;38.46;97117.07;238644;1200;23160;-69
2021/04/05 11:41:29;;;;;;;7.00;4.00;;;;;;;12.70;37.78;97147.13;238800;1197;25999;-68
2021/04/05 11:46:38;;;;;;;5.10;3.25;;;;;;;12.43;38.15;97126.06;238648;1200;23108;-69
2021/04/05 11:51:59;;;;;;;6.13;3.78;;;;;;;12.28;39.11;97124.89;238494;1197;23130;-69
2021/04/05 11:57:07;;;;;;;5.73;3.90;;;;;;;12.30;39.28;97106.52;238706;1200;23102;-71
2021/04/05 12:02:21;;;;;;;4.95;3.80;;;;;;;12.44;40.12;97116.89;238418;1199;23122;-69
2021/04/05 12:07:25;;;;;;;4.10;3.45;;;;;;;12.59;39.64;97117.27;238565;1198;23442;-68
2021/04/05 12:12:39;;;;;;;7.10;3.87;;;;;;;12.68;38.97;97099.11;238698;1202;23104;-68
2021/04/05 12:17:46;;;;;;;5.77;3.77;;;;;;;12.79;38.26;97086.74;238629;1199;23121;-69
2021/04/05 12:22:57;;;;;;;5.60;3.93;;;;;;;12.87;39.12;97086.92;238638;1199;23167;-69
2021/04/05 12:28:04;;;;;;;5.37;3.87;;;;;;;12.98;38.08;97087.98;238776;1199;23112;-70
2021/04/05 12:33:10;;;;;;;8.45;3.80;;;;;;;12.97;36.97;97062.25;238738;1199;23103;-69
2021/04/05 12:38:39;;;;;;;5.90;3.80;;;;;;;12.82;38.47;97061.87;238835;1197;23102;-69
2021/04/05 12:43:44;;;;;;;6.20;4.10;;;;;;;12.72;38.94;97058.89;238736;1200;23138;-71
2021/04/05 12:48:48;;;;;;;6.60;4.45;;;;;;;12.56;38.20;97032.02;238844;1201;23164;-69
2021/04/05 12:53:59;;;;;;;7.15;4.00;;;;;;;12.39;38.69;97023.13;238702;1201;23126;-68
2021/04/05 12:59:03;;;;;;;7.53;4.03;;;;;;;12.29;38.11;96996.78;238617;1200;23102;-69
2021/04/05 13:04:09;;;;;;;7.17;3.83;;;;;;;12.21;38.98;97001.17;238655;1200;24742;-69
2021/04/05 13:09:41;;;;;;;7.40;4.47;;;;;;;12.24;39.62;96989.77;238782;1200;23137;-71
2021/04/05 13:14:59;;;;;;;6.05;4.05;;;;;;;12.28;39.11;96969.17;238417;1196;23240;-69
2021/04/05 13:20:13;;;;;;;7.53;4.47;;;;;;;12.25;39.23;96950.27;238543;1200;23106;-70
2021/04/05 13:25:45;;;;;;;7.35;4.80;;;;;;;12.14;39.37;96948.09;238492;1196;23138;-69
2021/04/05 13:30:50;;;;;;;7.35;4.70;;;;;;;12.05;39.25;96944.77;238704;1197;23298;-70
2021/04/05 13:36:12;;;;;;;10.17;5.17;;;;;;;11.95;39.23;96929.17;238666;1200;23105;-69
2021/04/05 13:41:25;;;;;;;7.15;5.10;;;;;;;11.87;40.27;96924.70;238847;1196;23132;-69
2021/04/05 13:46:30;;;;;;;6.50;4.35;;;;;;;11.77;40.78;96907.97;238708;1197;23087;-69
2021/04/05 13:51:49;;;;;;;7.20;4.90;;;;;;;11.74;41.18;96879.15;238793;1200;23120;-68
2021/04/05 13:57:05;;;;;;;6.97;4.93;;;;;;;11.72;41.44;96883.29;238713;1200;23103;-70
2021/04/05 14:02:08;;;;;;;9.67;5.70;;;;;;;11.69;41.76;96863.29;238749;1203;24942;-69
2021/04/05 14:07:12;;;;;;;9.03;5.57;;;;;;;11.72;41.56;96854.55;238634;1200;23263;-70
2021/04/05 14:12:20;;;;;;;9.60;6.17;;;;;;;11.83;42.18;96841.43;238524;1200;23125;-69
2021/04/05 14:17:34;;;;;;;13.10;7.20;;;;;;;12.03;42.35;96828.95;238463;1202;25559;-70
2021/04/05 14:22:45;;;;;;;13.93;7.70;;;;;;;12.19;41.92;96809.39;238452;1202;27313;-70
2021/04/05 14:27:55;;;;;;;15.70;8.30;;;;;;;12.35;42.19;96806.69;238739;1200;23105;-69
2021/04/05 14:32:59;;;;;;;13.45;7.40;;;;;;;12.50;42.15;96801.30;238674;1197;23102;-69
2021/04/05 14:38:07;;;;;;;10.00;6.70;;;;;;;12.65;42.19;96778.23;238657;1202;28501;-70
2021/04/05 14:43:09;;;;;;;10.25;6.10;;;;;;;12.76;42.21;96756.17;238701;1200;23105;-69
2021/04/05 14:48:13;;;;;;;10.40;6.30;;;;;;;12.83;42.21;96735.63;238752;1202;23121;-69
2021/04/05 14:53:18;;;;;;;10.40;6.80;;;;;;;12.87;41.20;96743.77;238779;1202;23105;-69
2021/04/05 14:58:28;;;;;;;7.80;4.25;;;;;;;12.85;39.73;96732.58;238551;1197;23118;-69
2021/04/05 15:03:32;;;;;;;5.67;3.37;;;;;;;13.02;37.81;96715.25;238663;1199;23118;-71
2021/04/05 15:08:55;;;;;;;5.37;2.90;;;;;;;13.12;37.96;96719.28;238712;1200;23123;-69
2021/04/05 15:14:01;;;;;;;5.03;3.40;;;;;;;13.08;36.90;96718.43;238706;1196;23112;-70
2021/04/05 15:19:05;;;;;;;5.45;2.90;;;;;;;13.00;37.35;96720.22;238857;1196;23101;-69
2021/04/05 15:24:10;;;;;;;4.40;3.00;;;;;;;12.91;37.31;96741.91;238830;1199;23115;-69
2021/04/05 15:29:15;;;;;;;7.27;3.43;;;;;;;12.87;37.42;96734.91;238878;1196;23105;-68
2021/04/05 15:34:23;;;;;;;4.70;3.30;;;;;;;12.80;38.31;96724.80;238676;1199;23131;-69
2021/04/05 15:39:25;;;;;;;9.15;4.00;;;;;;;12.78;37.45;96714.40;238739;1196;23174;-69
2021/04/05 15:44:48;;;;;;;4.50;2.30;;;;;;;12.75;34.82;96701.68;238736;1196;23159;-70
2021/04/05 15:50:02;;;;;;;4.13;2.07;;;;;;;12.76;35.22;96713.98;238844;1196;23121;-70
2021/04/05 15:55:06;;;;;;;5.10;2.00;;;;;;;12.74;36.42;96707.41;238867;1196;26023;-69
2021/04/05 16:00:11;;;;;;;1.90;1.70;;;;;;;12.71;35.80;96721.55;238817;1199;23111;-69
2021/04/05 16:05:21;;;;;;;4.20;1.60;;;;;;;12.67;35.09;96716.09;238700;1197;23157;-69
2021/04/05 16:10:53;;;;;;;2.90;1.60;;;;;;;12.64;34.73;96733.69;238696;1199;23102;-69
2021/04/05 16:15:58;;;;;;;2.83;1.50;;;;;;;12.63;33.65;96750.16;238773;1197;23109;-69
2021/04/05 16:21:12;;;;;;;2.55;1.40;;;;;;;12.56;33.71;96742.72;238759;1199;23550;-68
2021/04/05 16:26:19;;;;;;;3.60;1.50;;;;;;;12.47;35.18;96750.97;238825;1197;23115;-68
2021/04/05 16:31:30;;;;;;;2.30;1.20;;;;;;;12.34;35.20;96746.86;239118;1196;26210;-70
2021/04/05 16:36:34;;;;;;;;;;;;;;;12.15;35.47;96753.70;238846;1196;23123;-69
2021/04/05 16:41:38;;;;;;;4.40;1.80;;;;;;;11.95;36.19;96738.67;238925;1196;21615;-68
2021/04/05 16:46:47;;;;;;;5.33;1.77;;;;;;;11.75;36.64;96748.48;238731;1196;23112;-71
2021/04/05 16:51:52;;;;;;;5.10;1.70;;;;;;;11.62;37.68;96772.69;238798;1196;23162;-70
2021/04/05 16:56:58;;;;;;;3.37;1.37;;;;;;;11.52;37.82;96778.56;238784;1197;23942;-69
2021/04/05 17:02:07;;;;;;;2.10;1.30;;;;;;;11.39;37.85;96799.30;238971;1196;23096;-69
2021/04/05 17:07:12;;;;;;;3.23;1.47;;;;;;;11.29;38.04;96818.55;238881;1196;24963;-69
2021/04/05 17:12:19;;;;;;;4.53;1.30;;;;;;;11.18;39.00;96823.61;239017;1196;23211;-69
2021/04/05 17:17:45;;;;;;;6.83;4.20;;;;;;;10.33;46.85;96906.31;238677;1196;23117;-68
2021/04/05 17:23:00;;;;;;;6.33;4.10;;;;;;;8.98;55.92;96936.67;238786;1196;23124;-69
2021/04/05 17:28:07;;;;;;;5.23;3.60;;;;;;;7.77;60.48;96973.21;238764;1196;23139;-68
2021/04/05 17:33:22;;;;;;;4.23;2.77;;;;;;;6.90;61.97;97011.89;238681;1196;23134;-69
2021/04/05 17:38:29;;;;;;;2.00;1.80;;;;;;;6.08;63.22;97035.19;238832;1196;23105;-68
2021/04/05 17:43:51;;;;;;;2.27;1.90;;;;;;;5.58;64.28;97038.63;238554;1196;23135;-69
2021/04/05 17:49:09;;;;;;;1.20;1.05;;;;;;;5.14;66.51;97070.03;238827;1196;23246;-71
2021/04/05 17:54:42;;;;;;;1.25;0.70;;;;;;;4.51;66.59;97060.80;238965;1196;23128;-70
2021/04/05 18:00:09;;;;;;;0.80;0.50;;;;;;;3.90;67.60;97095.88;238718;1197;23113;-69
2021/04/05 18:05:41;;;;;;;3.97;0.60;;;;;;;3.40;68.27;97106.80;238706;1199;23125;-69
2021/04/05 18:11:16;;;;;;;1.10;0.55;;;;;;;3.11;68.09;97120.08;238733;1196;23126;-69
2021/04/05 18:16:48;;;;;;;1.40;0.45;;;;;;;2.80;69.65;97144.17;238936;1196;23112;-69
2021/04/05 18:22:13;;;;;;;0.50;0.37;;;;;;;2.35;70.90;97154.00;238913;1196;23201;-69
2021/04/05 18:27:34;;;;;;;0.70;0.50;;;;;;;1.98;71.10;97177.19;238611;1196;23112;-70
2021/04/05 18:32:57;;;;;;;1.20;0.80;;;;;;;1.73;70.47;97201.06;238673;1196;23123;-69
2021/04/05 18:38:02;;;;;;;0.73;0.70;;;;;;;1.56;71.63;97222.50;238678;1197;23276;-69
2021/04/05 18:43:12;;;;;;;1.90;1.30;;;;;;;1.37;70.96;97238.87;238800;1197;23125;-70
2021/04/05 18:48:16;;;;;;;1.60;1.00;;;;;;;1.21;71.85;97240.73;238690;1196;23102;-70
2021/04/05 18:53:37;;;;;;;1.47;1.07;;;;;;;1.07;71.76;97258.16;238658;1197;23124;-69
2021/04/05 18:58:50;;;;;;;1.35;1.20;;;;;;;0.92;71.56;97264.20;238562;1196;23105;-70
2021/04/05 19:04:07;;;;;;;2.20;1.37;;;;;;;0.83;72.50;97263.94;238719;1196;23102;-70
2021/04/05 19:09:19;;;;;;;1.65;1.45;;;;;;;0.76;73.00;97282.64;238761;1196;23103;-69
2021/04/05 19:15:00;;;;;;;3.10;1.50;;;;;;;0.73;73.36;97277.89;238734;1196;23160;-70
2021/04/05 19:20:24;;;;;;;2.40;1.30;;;;;;;0.65;74.01;97275.77;238758;1197;23115;-70
2021/04/05 19:25:48;;;;;;;1.90;1.20;;;;;;;0.59;75.50;97290.77;238720;1196;23129;-71
2021/04/05 19:31:30;;;;;;;2.77;1.50;;;;;;;0.57;74.80;97299.98;238691;1196;23102;-70
2021/04/05 19:37:03;;;;;;;1.70;1.40;;;;;;;0.51;75.77;97336.85;238743;1196;26217;-71
2021/04/05 19:42:21;;;;;;;2.87;1.30;;;;;;;0.43;75.81;97337.34;239048;1196;23134;-71
2021/04/05 19:47:36;;;;;;;1.80;1.30;;;;;;;0.37;77.40;97341.02;238759;1196;23134;-71
2021/04/05 19:53:10;;;;;;;2.05;1.00;;;;;;;0.27;78.63;97351.52;239323;1196;23122;-71
2021/04/05 19:58:22;;;;;;;0.60;0.60;;;;;;;0.16;77.59;97367.25;238931;1199;23451;-71
2021/04/05 20:03:40;;;;;;;0.80;0.50;;;;;;;0.05;78.32;97373.51;239358;1196;23112;-71
2021/04/05 20:09:02;;;;;;;0.80;0.60;;;;;;;-0.03;78.68;97381.88;239329;1196;23125;-72
2021/04/05 20:14:26;;;;;;;2.25;0.70;;;;;;;-0.12;78.09;97396.58;239381;1196;23134;-71
2021/04/05 20:19:40;;;;;;;0.70;0.50;;;;;;;-0.22;78.47;97392.81;239403;1195;23116;-71
2021/04/05 20:25:07;;;;;;;0.73;0.47;;;;;;;-0.28;78.71;97393.83;239298;1196;23112;-71
2021/04/05 20:30:41;;;;;;;1.40;0.80;;;;;;;-0.29;78.69;97401.98;238838;1196;23136;-70
2021/04/05 20:35:58;;;;;;;1.47;0.90;;;;;;;-0.33;78.80;97412.20;238761;1200;23135;-71
2021/04/05 20:41:10;;;;;;;1.10;0.70;;;;;;;-0.34;78.38;97431.66;238728;1196;23247;-71
2021/04/05 20:46:23;;;;;;;1.00;0.90;;;;;;;-0.32;78.54;97445.38;238616;1196;23112;-70
2021/04/05 20:51:33;;;;;;;0.97;0.60;;;;;;;-0.28;78.25;97450.92;238682;1196;23234;-70
2021/04/05 20:57:03;;;;;;;1.40;1.30;;;;;;;-0.30;78.06;97451.17;238809;1196;23112;-70
2021/04/05 21:02:14;;;;;;;1.73;0.80;;;;;;;-0.27;77.85;97453.30;238703;1199;23109;-71
2021/04/05 21:07:25;;;;;;;1.23;0.87;;;;;;;-0.24;77.71;97452.01;238931;1199;23122;-70
2021/04/05 21:12:38;;;;;;;2.40;1.25;;;;;;;-0.21;77.83;97444.42;238631;1200;23137;-71
2021/04/05 21:18:21;;;;;;;1.50;1.10;;;;;;;-0.20;77.47;97458.36;239606;1196;23162;-69
2021/04/05 21:23:33;;;;;;;2.97;1.60;;;;;;;-0.23;77.79;97470.18;238279;1196;23134;-70
2021/04/05 21:28:45;;;;;;;3.00;1.70;;;;;;;-0.22;77.57;97471.77;238816;1196;23227;-71
2021/04/05 21:33:56;;;;;;;2.85;1.90;;;;;;;-0.21;77.20;97476.00;238854;1196;23240;-71
2021/04/05 21:39:02;;;;;;;4.05;1.85;;;;;;;-0.23;77.30;97469.39;238750;1196;23109;-70
2021/04/05 21:44:06;;;;;;;4.50;2.20;;;;;;;-0.25;77.47;97482.00;238616;1199;23106;-70
2021/04/05 21:49:14;;;;;;;5.15;2.80;;;;;;;-0.25;77.55;97482.80;238824;1196;25990;-69
2021/04/05 21:54:32;;;;;;;3.13;1.90;;;;;;;-0.23;77.54;97485.97;238712;1196;23132;-70
2021/04/05 21:59:37;;;;;;;4.55;2.10;;;;;;;-0.25;77.94;97489.89;238750;1196;23118;-69
2021/04/05 22:04:49;;;;;;;1.90;1.43;;;;;;;-0.32;78.60;97486.67;238901;1196;23121;-69
2021/04/05 22:09:53;;;;;;;1.90;1.50;;;;;;;-0.39;78.82;97503.47;238948;1196;23092;-69
2021/04/05 22:15:06;;;;;;;4.30;2.40;;;;;;;-0.40;78.93;97499.23;238825;1200;23562;-69
2021/04/05 22:20:14;;;;;;;5.55;2.20;;;;;;;-0.45;79.43;97509.70;239430;1196;23128;-69
2021/04/05 22:25:39;;;;;;;5.57;2.47;;;;;;;-0.47;80.12;97511.80;238655;1196;26205;-69
2021/04/05 22:30:42;;;;;;;3.90;2.63;;;;;;;-0.46;79.37;97486.27;238775;1200;23108;-69
2021/04/05 22:35:46;;;;;;;6.60;3.93;;;;;;;-0.45;79.19;97479.98;238655;1200;23082;-70
2021/04/05 22:40:51;;;;;;;6.93;3.40;;;;;;;-0.42;79.94;97480.28;238889;1196;23113;-70
2021/04/05 22:45:56;;;;;;;5.93;3.17;;;;;;;-0.40;79.18;97493.97;238808;1200;25868;-69
2021/04/05 22:51:10;;;;;;;4.60;3.10;;;;;;;-0.38;79.39;97502.43;238651;1196;26217;-70
2021/04/05 22:56:14;;;;;;;5.00;3.15;;;;;;;-0.37;79.42;97498.73;238720;1197;23112;-69
2021/04/05 23:01:19;;;;;;;4.20;2.90;;;;;;;-0.35;79.53;97503.75;238658;1196;23164;-69
2021/04/05 23:06:26;;;;;;;6.70;3.10;;;;;;;-0.34;79.12;97505.34;238679;1197;23113;-70
2021/04/05 23:11:40;;;;;;;5.87;2.70;;;;;;;-0.33;80.08;97517.47;238665;1200;23113;-68
2021/04/05 23:16:50;;;;;;;5.00;2.55;;;;;;;-0.33;79.37;97522.73;238622;1200;23105;-69
2021/04/05 23:21:54;;;;;;;;;;;;;;;-0.35;80.11;97527.43;238726;1196;23105;-69
2021/04/05 23:27:05;;;;;;;5.30;2.50;;;;;;;-0.39;79.98;97537.67;238672;1196;23952;-69
2021/04/05 23:32:08;;;;;;;3.80;2.40;;;;;;;-0.39;79.89;97536.89;238662;1199;23098;-69
2021/04/05 23:37:17;;;;;;;4.15;1.95;;;;;;;-0.37;79.89;97535.58;238714;1199;23114;-70
2021/04/05 23:42:22;;;;;;;3.93;2.17;;;;;;;-0.37;80.07;97542.69;238710;1200;23123;-69
2021/04/05 23:48:00;;;;;;;4.77;2.30;;;;;;;-0.39;79.67;97535.04;238616;1200;25962;-69
2021/04/05 23:53:05;;;;;;;3.80;1.90;;;;;;;-0.35;79.51;97532.69;238886;1199;23105;-70
2021/04/05 23:58:11;;;;;;;3.50;1.90;;;;;;;-0.32;79.26;97547.20;238640;1200;27308;-70
